Park City, UT

2:00 AM MST on December 22, 2014 (GMT -0700)
Moose Hollow | Change Station
CLOSE
Current Station
Personal Weather Station
Location: Park City, UT
Elevation: 6775 ft
Nearby Weather Stations

Elev 6775 ft 40.76 °N, 111.59 °W | Updated 32 seconds ago

Snow
Snow
33.1 °F
Feels Like 26 °F
N
8.0
Wind Variable Wind from West
Gusts 13.0 mph

Today
High -- | Low -- °F
--% Chance of Precip.
Yesterday
High -- | Low -- °F
Precip. -- in
7:47 AM 5:02 PM
New Moon, 0% visible
Pressure 29.99 in
Visibility 10.0 miles
Clouds Scattered Clouds 2100 ft
Mostly Cloudy 3200 ft
Overcast 3900 ft
Windchill 26 °F
Dew Point 29 °F
Humidity 83%
Rainfall 0.84 in
Snow Depth Not available.
UV 0 out of 12
Pollen .10 out of 12
Air Quality Not available.
Flu Activity Not available.
METAR K36U 220855Z AUTO 12006KT 10SM UP SCT021 BKN032 OVC039 03/00 A2999 RMK AO2

More Conditions Fewer Conditions

Pressure 29.99 in
Visibility 10.0 miles
Clouds Scattered Clouds 2100 ft
Mostly Cloudy 3200 ft
Overcast 3900 ft
Windchill 26 °F
Dew Point 29 °F
Humidity 83%
Rainfall 0.84 in
Snow Depth Not available.
UV 0 out of 12
Pollen .10 out of 12
Air Quality Not available.
Flu Activity Not available.
METAR K36U 220855Z AUTO 12006KT 10SM UP SCT021 BKN032 OVC039 03/00 A2999 RMK AO2

More Conditions Fewer Conditions

10-Day Weather Forecast

Almanac

Astronomy

Dec. 22, 2014 Rise Set
Actual Time
Civil Twilight
Nautical Twilight
Astronomical Twilight
Moon
Length of Visible Light
Length of Day
Tomorrow will be .
, % of the Moon is Illuminated

Today's Extremes

State Highs State Lows

Community

WunderPhotos

Upload Photos

1,779,580 photos uploaded!

WunderBlogs® & News

Nearby

Air Quality

  Air Quality AQ Index Pollutant
Not available.

Snow Depth

Station Depth Elevation

Earthquake Activity

City Distance Mag. Time & Date
Minimum magnitude displayed is 2.5.

Coastal Water Temperatures

Place Temperature

Nearby Weather Stations